Time;durP1;ratioP1;P1;durP2;ratioP2;P2;SDS_P1;SDS_P2;PMS_P1;PMS_P2;Temp;Humidity;BMP_temperature;BMP_pressure;BME280_temperature;BME280_humidity;BME280_pressure;Samples;Min_cycle;Max_cycle;Signal;HPM_P1;HPM_P2
2021/03/05 00:00:09;;;;;;;34.47;22.50;;;11.20;99.90;;;;;;4971103;28;20202;-76
2021/03/05 00:02:37;;;;;;;41.03;24.00;;;11.10;99.90;;;;;;4971344;28;20237;-77
2021/03/05 00:05:04;;;;;;;34.40;20.93;;;11.20;99.90;;;;;;4970685;28;20209;-78
2021/03/05 00:07:31;;;;;;;33.90;19.73;;;11.20;99.90;;;;;;4971490;28;20252;-78
2021/03/05 00:09:58;;;;;;;32.60;21.03;;;11.10;99.90;;;;;;4971176;28;20637;-76
2021/03/05 00:12:24;;;;;;;34.03;20.53;;;11.10;99.90;;;;;;4971910;28;20241;-76
2021/03/05 00:14:50;;;;;;;36.03;20.93;;;11.00;99.90;;;;;;4973658;28;20214;-79
2021/03/05 00:17:17;;;;;;;40.93;21.03;;;11.00;99.90;;;;;;4974705;28;20209;-78
2021/03/05 00:19:44;;;;;;;39.03;22.43;;;11.00;99.90;;;;;;4975595;28;20213;-76
2021/03/05 00:22:11;;;;;;;39.13;22.27;;;10.90;99.90;;;;;;4974428;28;20213;-74
2021/03/05 00:24:38;;;;;;;37.60;20.67;;;10.90;99.90;;;;;;4975193;28;20693;-77
2021/03/05 00:27:05;;;;;;;33.93;22.83;;;10.80;99.90;;;;;;4974666;28;20209;-74
2021/03/05 00:29:32;;;;;;;35.27;21.20;;;10.80;99.90;;;;;;4975171;28;20201;-76
2021/03/05 00:31:58;;;;;;;33.50;21.47;;;10.80;99.90;;;;;;4974557;28;20206;-74
2021/03/05 00:34:25;;;;;;;44.03;24.10;;;10.70;99.90;;;;;;4962188;28;20210;-79
2021/03/05 00:36:52;;;;;;;31.70;21.07;;;10.70;99.90;;;;;;4975357;28;21143;-80
2021/03/05 00:39:19;;;;;;;38.87;20.83;;;10.60;99.90;;;;;;4974576;28;20637;-78
2021/03/05 00:41:45;;;;;;;39.10;23.23;;;10.60;99.90;;;;;;4973432;28;20206;-78
2021/03/05 00:44:12;;;;;;;36.73;23.17;;;10.50;99.90;;;;;;4974543;28;20245;-77
2021/03/05 00:46:38;;;;;;;35.07;21.70;;;10.50;99.90;;;;;;4974157;28;20217;-77
2021/03/05 00:49:05;;;;;;;38.70;22.17;;;10.40;99.90;;;;;;4974606;28;20610;-75
2021/03/05 00:51:31;;;;;;;36.40;23.97;;;10.40;99.90;;;;;;4974459;28;20674;-76
2021/03/05 00:53:58;;;;;;;35.50;20.83;;;10.30;99.90;;;;;;4974675;28;20553;-76
2021/03/05 00:56:25;;;;;;;35.47;20.63;;;10.30;99.90;;;;;;4974912;28;20266;-74
2021/03/05 00:58:51;;;;;;;31.77;21.13;;;10.20;99.90;;;;;;4974757;28;20564;-74
2021/03/05 01:01:18;;;;;;;38.90;22.67;;;10.30;99.90;;;;;;4973752;28;20408;-77
2021/03/05 01:03:44;;;;;;;32.83;22.50;;;10.20;99.90;;;;;;4974596;28;20232;-77
2021/03/05 01:06:11;;;;;;;36.50;20.53;;;10.10;99.90;;;;;;4974269;28;20205;-76
2021/03/05 01:08:37;;;;;;;35.57;22.13;;;10.10;99.90;;;;;;4974278;28;20205;-76
2021/03/05 01:11:05;;;;;;;36.27;20.90;;;10.10;99.90;;;;;;4974174;28;20557;-75
2021/03/05 01:13:31;;;;;;;34.13;21.73;;;10.10;99.90;;;;;;4974014;28;20221;-76
2021/03/05 01:15:58;;;;;;;37.47;23.97;;;10.00;99.90;;;;;;4974107;28;20213;-75
2021/03/05 01:18:24;;;;;;;35.53;22.73;;;10.00;99.90;;;;;;4974473;28;20209;-77
2021/03/05 01:20:51;;;;;;;34.60;24.13;;;10.00;99.90;;;;;;4974155;28;20216;-77
2021/03/05 01:23:18;;;;;;;40.13;21.57;;;10.00;99.90;;;;;;4973542;28;20287;-77
2021/03/05 01:25:44;;;;;;;34.00;23.13;;;9.90;99.90;;;;;;4973387;28;20205;-80
2021/03/05 01:28:13;;;;;;;32.93;22.60;;;10.00;99.90;;;;;;4973536;28;20214;-80
2021/03/05 01:30:40;;;;;;;37.77;22.13;;;9.90;99.90;;;;;;4973692;28;20379;-82
2021/03/05 01:33:06;;;;;;;39.83;24.03;;;9.90;99.90;;;;;;4973917;28;20210;-80
2021/03/05 01:35:33;;;;;;;44.90;23.57;;;9.80;99.90;;;;;;4973890;28;20217;-77
2021/03/05 01:38:00;;;;;;;31.43;21.67;;;9.80;99.90;;;;;;4973429;28;20218;-77
2021/03/05 01:40:31;;;;;;;33.07;23.30;;;9.80;99.90;;;;;;4974127;28;20213;-77
2021/03/05 01:42:58;;;;;;;39.50;23.40;;;9.80;99.90;;;;;;4973321;28;20221;-76
2021/03/05 01:45:28;;;;;;;32.10;21.50;;;9.80;99.90;;;;;;4973839;28;20209;-77
2021/03/05 01:47:56;;;;;;;41.23;23.23;;;9.70;99.90;;;;;;4974003;28;20220;-79
2021/03/05 01:50:26;;;;;;;34.23;22.00;;;9.70;99.90;;;;;;4973840;28;20257;-78
2021/03/05 01:52:56;;;;;;;38.03;23.53;;;9.60;99.90;;;;;;4973961;28;20570;-76
2021/03/05 01:55:23;;;;;;;42.97;24.20;;;9.60;99.90;;;;;;4973333;28;20205;-78
2021/03/05 01:57:50;;;;;;;36.60;22.10;;;9.50;99.90;;;;;;4971967;28;20218;-75
2021/03/05 02:00:20;;;;;;;37.20;24.37;;;9.50;99.90;;;;;;4972661;28;20210;-76
2021/03/05 02:02:48;;;;;;;42.80;27.37;;;9.50;99.90;;;;;;4974060;28;20682;-78
2021/03/05 02:05:14;;;;;;;38.70;23.77;;;9.50;99.90;;;;;;4972908;28;20205;-78
2021/03/05 02:07:41;;;;;;;35.73;25.37;;;9.60;99.90;;;;;;4973364;28;20216;-76
2021/03/05 02:10:08;;;;;;;44.13;25.13;;;9.50;99.90;;;;;;4972539;28;20678;-77
2021/03/05 02:12:35;;;;;;;38.20;25.13;;;9.50;99.90;;;;;;4973153;28;20214;-77
2021/03/05 02:15:03;;;;;;;36.97;22.77;;;9.40;99.90;;;;;;4972449;28;20210;-77
2021/03/05 02:17:36;;;;;;;35.63;22.87;;;9.40;99.90;;;;;;4973223;28;20267;-76
2021/03/05 02:20:11;;;;;;;40.10;23.77;;;9.40;99.90;;;;;;4972615;28;20264;-77
2021/03/05 02:23:14;;;;;;;35.90;22.53;;;9.40;99.90;;;;;;4972872;28;20233;-75
2021/03/05 02:26:06;;;;;;;44.93;22.93;;;9.40;99.90;;;;;;4972942;28;20209;-74
2021/03/05 02:29:00;;;;;;;30.63;23.77;;;9.40;99.90;;;;;;4972341;28;20209;-74
2021/03/05 02:31:32;;;;;;;40.57;22.97;;;9.30;99.90;;;;;;4972777;28;20567;-73
2021/03/05 02:34:03;;;;;;;42.13;23.37;;;9.30;99.90;;;;;;4972400;28;20205;-73
2021/03/05 02:36:35;;;;;;;37.00;24.33;;;9.30;99.90;;;;;;4972735;28;20216;-77
2021/03/05 02:39:07;;;;;;;41.10;24.03;;;9.20;99.90;;;;;;4971380;28;20210;-74
2021/03/05 02:41:37;;;;;;;33.93;23.47;;;9.20;99.90;;;;;;4972635;28;20209;-75
2021/03/05 02:44:07;;;;;;;34.53;22.30;;;9.20;99.90;;;;;;4971601;28;20229;-76
2021/03/05 02:46:36;;;;;;;35.43;22.60;;;9.20;99.90;;;;;;4972426;28;20689;-76
2021/03/05 02:49:05;;;;;;;43.53;25.03;;;9.20;99.90;;;;;;4972109;28;20229;-76
2021/03/05 02:51:34;;;;;;;37.63;22.90;;;9.20;99.90;;;;;;4972568;28;20240;-74
2021/03/05 02:54:02;;;;;;;36.33;23.40;;;9.20;99.90;;;;;;4971981;28;20221;-75
2021/03/05 02:56:33;;;;;;;43.03;24.27;;;9.10;99.90;;;;;;4972535;28;20212;-75
2021/03/05 02:59:01;;;;;;;37.10;22.00;;;9.10;99.90;;;;;;4971968;28;20267;-76
2021/03/05 03:01:28;;;;;;;36.50;23.73;;;9.10;99.90;;;;;;4972443;28;20254;-75
2021/03/05 03:03:57;;;;;;;34.20;22.17;;;9.00;99.90;;;;;;4972514;28;20237;-77
2021/03/05 03:06:26;;;;;;;31.47;22.13;;;8.90;99.90;;;;;;4972022;28;20217;-76
2021/03/05 03:08:56;;;;;;;36.80;22.20;;;8.90;99.90;;;;;;4972757;28;20216;-77
2021/03/05 03:11:23;;;;;;;39.33;23.10;;;8.90;99.90;;;;;;4971956;28;20205;-77
2021/03/05 03:13:50;;;;;;;35.33;21.93;;;8.90;99.90;;;;;;4972302;28;20268;-76
2021/03/05 03:16:18;;;;;;;35.77;23.03;;;8.90;99.90;;;;;;4971427;28;20221;-76
2021/03/05 03:18:46;;;;;;;36.10;23.40;;;8.90;99.90;;;;;;4971714;28;20206;-76
2021/03/05 03:21:15;;;;;;;31.83;23.03;;;8.90;99.90;;;;;;4971689;28;20264;-74
2021/03/05 03:23:41;;;;;;;35.80;23.23;;;8.90;99.90;;;;;;4972155;28;20233;-76
2021/03/05 03:26:08;;;;;;;34.77;21.80;;;8.90;99.90;;;;;;4971483;28;20205;-75
2021/03/05 03:28:35;;;;;;;34.47;22.53;;;8.90;99.90;;;;;;4971606;28;20555;-77
2021/03/05 03:31:04;;;;;;;36.00;22.17;;;8.90;99.90;;;;;;4971600;28;20210;-77
2021/03/05 03:33:31;;;;;;;33.27;21.70;;;8.90;99.90;;;;;;4971890;28;20201;-74
2021/03/05 03:36:00;;;;;;;38.17;22.50;;;8.90;99.90;;;;;;4972110;28;20209;-74
2021/03/05 03:38:29;;;;;;;34.77;23.57;;;8.80;99.90;;;;;;4971481;28;20217;-77
2021/03/05 03:40:56;;;;;;;36.23;22.43;;;8.80;99.90;;;;;;4971900;28;20248;-77
2021/03/05 03:43:22;;;;;;;32.40;21.97;;;8.80;99.90;;;;;;4971289;28;20232;-77
2021/03/05 03:45:49;;;;;;;35.43;20.50;;;8.70;99.90;;;;;;4971412;28;20216;-77
2021/03/05 03:48:16;;;;;;;37.83;22.40;;;8.60;99.90;;;;;;4971644;28;20209;-75
2021/03/05 03:50:46;;;;;;;31.37;21.93;;;8.60;99.90;;;;;;4977797;28;20266;-76
2021/03/05 03:53:14;;;;;;;41.53;23.37;;;8.60;99.90;;;;;;4977756;28;20213;-77
2021/03/05 03:55:42;;;;;;;35.40;22.20;;;8.60;99.90;;;;;;4977864;28;20232;-75
2021/03/05 03:58:09;;;;;;;40.80;23.70;;;8.50;99.90;;;;;;4977788;28;20264;-75
2021/03/05 04:00:36;;;;;;;37.97;25.17;;;8.50;99.90;;;;;;4977690;28;20682;-78
2021/03/05 04:03:05;;;;;;;38.13;24.67;;;8.50;99.90;;;;;;4977659;28;20229;-77
2021/03/05 04:05:34;;;;;;;36.03;23.00;;;8.50;99.90;;;;;;4978016;28;20296;-78
2021/03/05 04:08:01;;;;;;;43.27;26.23;;;8.50;99.90;;;;;;4977558;28;20205;-79
2021/03/05 04:10:29;;;;;;;45.33;25.50;;;8.50;99.90;;;;;;4977934;28;20210;-77
2021/03/05 04:12:57;;;;;;;34.13;26.07;;;8.50;99.90;;;;;;4977977;28;20220;-79
2021/03/05 04:15:25;;;;;;;48.83;25.80;;;8.50;99.90;;;;;;4978536;28;20205;-78
2021/03/05 04:17:51;;;;;;;36.63;25.50;;;8.40;99.90;;;;;;4977633;28;20301;-80
2021/03/05 04:20:22;;;;;;;34.33;23.70;;;8.40;99.90;;;;;;4978006;28;20212;-78
2021/03/05 04:22:49;;;;;;;36.20;24.47;;;8.40;99.90;;;;;;4977756;28;20739;-80
2021/03/05 04:25:17;;;;;;;42.63;25.77;;;8.40;99.90;;;;;;4977114;28;20702;-75
2021/03/05 04:27:44;;;;;;;39.57;24.83;;;8.40;99.90;;;;;;4978039;28;20263;-75
2021/03/05 04:30:13;;;;;;;36.83;24.33;;;8.40;99.90;;;;;;4977297;28;20206;-79
2021/03/05 04:32:41;;;;;;;43.57;26.50;;;8.40;99.90;;;;;;4977811;28;20220;-77
2021/03/05 04:35:09;;;;;;;42.83;26.00;;;8.40;99.90;;;;;;4977441;28;20296;-77
2021/03/05 04:37:36;;;;;;;35.37;23.73;;;8.30;99.90;;;;;;4977794;28;20229;-76
2021/03/05 04:40:04;;;;;;;38.87;25.57;;;8.30;99.90;;;;;;4976848;28;20595;-75
2021/03/05 04:42:30;;;;;;;39.70;26.30;;;8.30;99.90;;;;;;4977609;28;20201;-75
2021/03/05 04:44:56;;;;;;;33.27;23.90;;;8.30;99.90;;;;;;4978105;28;20260;-76
2021/03/05 04:47:24;;;;;;;43.57;26.43;;;8.30;99.90;;;;;;4977536;28;20221;-77
2021/03/05 04:49:51;;;;;;;36.80;23.13;;;8.30;99.90;;;;;;4977480;28;20213;-76
2021/03/05 04:52:17;;;;;;;38.37;26.20;;;8.20;99.90;;;;;;4977208;28;20209;-73
2021/03/05 04:54:44;;;;;;;38.70;25.23;;;8.20;99.90;;;;;;4977098;28;20210;-74
2021/03/05 04:57:10;;;;;;;46.70;25.60;;;8.20;99.90;;;;;;4977200;28;20316;-76
2021/03/05 04:59:36;;;;;;;38.93;24.13;;;8.10;99.90;;;;;;4977581;28;20639;-76
2021/03/05 05:02:03;;;;;;;35.33;25.93;;;8.10;99.90;;;;;;4973150;28;20256;-74
2021/03/05 05:04:30;;;;;;;41.20;25.73;;;8.10;99.90;;;;;;4974338;28;20237;-76
2021/03/05 05:06:57;;;;;;;33.60;24.13;;;8.10;99.90;;;;;;4974260;28;20643;-74
2021/03/05 05:09:24;;;;;;;45.57;25.93;;;8.00;99.90;;;;;;4975003;28;20209;-76
2021/03/05 05:11:50;;;;;;;40.33;25.13;;;8.10;99.90;;;;;;4974453;28;20210;-75
2021/03/05 05:14:17;;;;;;;38.03;24.80;;;8.10;99.90;;;;;;4976070;28;20221;-79
2021/03/05 05:16:43;;;;;;;42.83;24.10;;;8.10;99.90;;;;;;4973574;28;20210;-76
2021/03/05 05:19:10;;;;;;;37.53;24.40;;;8.00;99.90;;;;;;4972761;28;20210;-75
2021/03/05 05:21:38;;;;;;;36.23;24.40;;;8.00;99.90;;;;;;4973422;28;20221;-74
2021/03/05 05:24:05;;;;;;;45.27;25.57;;;8.00;99.90;;;;;;4971681;28;20240;-74
2021/03/05 05:26:32;;;;;;;39.63;25.30;;;8.10;99.90;;;;;;4976854;28;20209;-75
2021/03/05 05:28:58;;;;;;;40.27;26.17;;;8.00;99.90;;;;;;4973843;28;20205;-74
2021/03/05 05:31:26;;;;;;;47.20;26.47;;;8.00;99.90;;;;;;4974134;28;20210;-78
2021/03/05 05:33:53;;;;;;;33.93;24.87;;;8.00;99.90;;;;;;4968778;28;20220;-77
2021/03/05 05:36:20;;;;;;;44.57;26.03;;;8.00;99.90;;;;;;4965723;28;20264;-78
2021/03/05 05:38:48;;;;;;;47.13;29.57;;;8.10;99.90;;;;;;4973329;28;20229;-76
2021/03/05 05:41:15;;;;;;;43.70;27.13;;;8.10;99.90;;;;;;4973155;28;20694;-78
2021/03/05 05:43:43;;;;;;;52.40;28.97;;;8.10;99.90;;;;;;4973518;28;20229;-83
2021/03/05 05:46:10;;;;;;;47.47;30.50;;;8.10;99.90;;;;;;4973319;28;20212;-79
2021/03/05 05:48:39;;;;;;;51.10;30.70;;;8.10;99.90;;;;;;4973580;28;20213;-79
2021/03/05 05:51:14;;;;;;;47.20;29.83;;;8.10;99.90;;;;;;4972784;28;20245;-78
2021/03/05 05:53:44;;;;;;;43.97;29.60;;;8.10;99.90;;;;;;4973266;28;20305;-78
2021/03/05 05:56:14;;;;;;;49.13;30.40;;;8.00;99.90;;;;;;4972449;28;20206;-74
2021/03/05 05:58:41;;;;;;;45.07;31.10;;;8.00;99.90;;;;;;4973138;28;20214;-74
2021/03/05 06:01:08;;;;;;;51.43;34.33;;;8.00;99.90;;;;;;4972414;28;20571;-78
2021/03/05 06:03:35;;;;;;;47.13;32.80;;;8.00;99.90;;;;;;4973579;28;20241;-75
2021/03/05 06:06:02;;;;;;;52.90;33.07;;;8.00;99.90;;;;;;4972352;28;20218;-74
2021/03/05 06:08:29;;;;;;;50.17;30.07;;;7.90;99.90;;;;;;4973275;28;20208;-74
2021/03/05 06:10:56;;;;;;;50.60;31.47;;;7.90;99.90;;;;;;4973388;28;20287;-74
2021/03/05 06:13:26;;;;;;;48.17;33.70;;;7.90;99.90;;;;;;4972611;28;20213;-76
2021/03/05 06:16:12;;;;;;;49.23;33.20;;;7.80;99.90;;;;;;4973151;28;20205;-74
2021/03/05 06:18:39;;;;;;;47.50;32.10;;;7.80;99.90;;;;;;4962967;28;20208;-76
2021/03/05 06:21:06;;;;;;;53.50;32.23;;;7.80;99.90;;;;;;4972558;28;20213;-78
2021/03/05 06:23:34;;;;;;;49.43;32.77;;;7.90;99.90;;;;;;4972904;28;20225;-76
2021/03/05 06:26:03;;;;;;;45.43;30.77;;;7.80;99.90;;;;;;4972255;28;20209;-76
2021/03/05 06:28:30;;;;;;;45.03;29.77;;;7.80;99.90;;;;;;4972617;28;20206;-75
2021/03/05 06:30:57;;;;;;;47.37;31.13;;;7.80;99.90;;;;;;4972826;28;20214;-73
2021/03/05 06:33:28;;;;;;;46.37;31.83;;;7.90;99.90;;;;;;4972474;28;20636;-76
2021/03/05 06:35:55;;;;;;;42.03;29.47;;;7.90;99.90;;;;;;4972921;28;20201;-74
2021/03/05 06:38:42;;;;;;;51.37;31.40;;;7.90;99.90;;;;;;4972183;28;20217;-74
2021/03/05 06:41:16;;;;;;;46.57;30.53;;;8.00;99.90;;;;;;4972255;28;20212;-77
2021/03/05 06:43:44;;;;;;;37.90;29.50;;;8.00;99.90;;;;;;4972560;28;20657;-74
2021/03/05 06:46:36;;;;;;;42.77;28.00;;;8.10;99.90;;;;;;4972089;28;20216;-76
2021/03/05 06:49:06;;;;;;;43.60;28.97;;;8.10;99.90;;;;;;4971652;28;20209;-77
2021/03/05 06:51:32;;;;;;;40.57;27.87;;;8.20;99.90;;;;;;4972551;28;20209;-77
2021/03/05 06:54:07;;;;;;;46.43;27.27;;;8.20;99.90;;;;;;4971828;28;20202;-74
2021/03/05 06:56:35;;;;;;;47.43;30.00;;;8.30;99.90;;;;;;4972268;28;20212;-77
2021/03/05 06:59:06;;;;;;;47.43;30.20;;;8.40;99.90;;;;;;4971838;28;20210;-78
2021/03/05 07:01:33;;;;;;;40.90;29.00;;;8.40;99.90;;;;;;4972072;28;20259;-79
2021/03/05 07:04:07;;;;;;;37.97;29.00;;;8.50;99.90;;;;;;4971083;28;20713;-73
2021/03/05 07:06:33;;;;;;;49.70;29.27;;;8.50;99.90;;;;;;4972156;28;20259;-76
2021/03/05 07:09:00;;;;;;;44.07;31.40;;;8.60;99.90;;;;;;4972024;28;20205;-74
2021/03/05 07:11:38;;;;;;;46.33;29.37;;;8.70;99.90;;;;;;4972033;28;20250;-73
2021/03/05 07:14:08;;;;;;;43.43;31.00;;;8.80;99.90;;;;;;4970007;28;20240;-74
2021/03/05 07:16:40;;;;;;;53.00;29.80;;;8.80;99.90;;;;;;4971539;28;20237;-75
2021/03/05 07:19:06;;;;;;;46.63;29.03;;;8.90;99.90;;;;;;4971003;28;20209;-75
2021/03/05 07:21:39;;;;;;;53.50;30.90;;;8.90;99.90;;;;;;4970890;28;22042;-74
2021/03/05 07:24:07;;;;;;;40.93;29.67;;;9.00;99.90;;;;;;4963612;28;20709;-76
2021/03/05 07:26:36;;;;;;;47.20;32.13;;;9.10;99.90;;;;;;4971189;28;20206;-75
2021/03/05 07:29:04;;;;;;;52.10;31.87;;;9.30;99.90;;;;;;4971172;28;20586;-75
2021/03/05 07:31:33;;;;;;;49.73;31.57;;;9.30;99.90;;;;;;4971159;28;20209;-73
2021/03/05 07:34:01;;;;;;;40.03;29.97;;;9.40;99.90;;;;;;4970708;28;20218;-73
2021/03/05 07:36:31;;;;;;;47.50;28.57;;;9.60;99.90;;;;;;4971370;28;20206;-76
2021/03/05 07:39:03;;;;;;;46.33;29.90;;;9.70;99.90;;;;;;4971052;28;20221;-73
2021/03/05 07:41:30;;;;;;;43.00;27.30;;;10.00;99.90;;;;;;4968563;28;20213;-73
2021/03/05 07:43:58;;;;;;;39.23;26.60;;;10.10;99.90;;;;;;4969867;28;20241;-74
2021/03/05 07:46:25;;;;;;;41.20;26.13;;;10.20;99.90;;;;;;4969760;28;20209;-72
2021/03/05 07:48:52;;;;;;;33.33;23.47;;;10.70;99.90;;;;;;4970076;28;20217;-73
2021/03/05 07:51:19;;;;;;;36.00;25.77;;;10.60;99.90;;;;;;4970077;28;20210;-75
2021/03/05 07:53:50;;;;;;;33.77;24.43;;;10.90;99.90;;;;;;4970265;28;20213;-75
2021/03/05 07:56:39;;;;;;;37.27;24.17;;;11.00;99.90;;;;;;4971308;28;20249;-74
2021/03/05 07:59:06;;;;;;;29.97;25.43;;;10.90;99.90;;;;;;4968650;28;20210;-75
2021/03/05 08:01:56;;;;;;;33.50;25.37;;;11.30;99.90;;;;;;4971239;28;20209;-75
2021/03/05 08:04:23;;;;;;;31.97;23.83;;;12.00;99.90;;;;;;4971217;28;20237;-76
2021/03/05 08:07:09;;;;;;;35.17;23.03;;;12.00;99.90;;;;;;4970832;28;20217;-75
2021/03/05 08:09:37;;;;;;;36.20;24.20;;;12.20;99.90;;;;;;4971520;28;20220;-74
2021/03/05 08:12:33;;;;;;;29.37;24.47;;;12.30;99.90;;;;;;4971433;28;20348;-77
2021/03/05 08:15:22;;;;;;;35.47;26.87;;;13.50;99.90;;;;;;4968558;28;20209;-79
2021/03/05 08:17:50;;;;;;;46.37;28.20;;;13.20;99.90;;;;;;4970720;28;20205;-79
2021/03/05 08:20:53;;;;;;;41.90;25.50;;;13.00;99.90;;;;;;4979595;28;20210;-77
2021/03/05 08:23:20;;;;;;;45.30;29.53;;;13.20;99.90;;;;;;4964139;28;20233;-77
2021/03/05 08:25:51;;;;;;;38.27;27.70;;;12.80;99.90;;;;;;4969817;28;20229;-77
2021/03/05 08:28:39;;;;;;;45.50;30.05;;;12.40;99.90;;;;;;4967642;28;20201;-78
2021/03/05 08:31:33;;;;;;;40.43;27.33;;;12.20;99.90;;;;;;4969788;28;20210;-79
2021/03/05 08:34:27;;;;;;;40.47;26.10;;;12.60;99.90;;;;;;4952177;28;20236;-75
2021/03/05 08:36:55;;;;;;;43.87;27.07;;;12.50;99.90;;;;;;4970394;28;20217;-76
2021/03/05 08:39:29;;;;;;;44.58;26.42;;;13.60;99.90;;;;;;4973201;28;20213;-78
2021/03/05 08:42:27;;;;;;;36.83;25.13;;;14.80;99.90;;;;;;4974809;28;20217;-77
2021/03/05 08:45:14;;;;;;;34.65;25.17;;;14.00;99.90;;;;;;4968637;28;20237;-78
2021/03/05 08:47:42;;;;;;;39.03;24.80;;;13.70;99.90;;;;;;4962564;28;20284;-81
2021/03/05 08:50:10;;;;;;;38.88;24.52;;;12.80;99.90;;;;;;4972397;28;20605;-79
2021/03/05 08:52:40;;;;;;;35.92;24.67;;;13.40;99.90;;;;;;4974637;28;20745;-80
2021/03/05 08:55:08;;;;;;;37.40;26.23;;;14.40;99.90;;;;;;4974209;28;21981;-81
2021/03/05 08:57:39;;;;;;;43.20;25.00;;;13.90;99.90;;;;;;4974676;28;20210;-89
2021/03/05 09:00:07;;;;;;;40.22;26.42;;;13.90;99.90;;;;;;4973500;28;20206;-84
2021/03/05 09:02:33;;;;;;;38.35;26.83;;;14.70;99.90;;;;;;4972980;28;20213;-85
2021/03/05 09:05:00;;;;;;;31.98;25.85;;;15.70;99.90;;;;;;4974091;28;20244;-84
2021/03/05 09:07:28;;;;;;;39.35;25.67;;;15.00;99.90;;;;;;4974938;28;20791;-80
2021/03/05 09:09:56;;;;;;;34.40;23.40;;;15.10;99.90;;;;;;4974115;28;20209;-78
2021/03/05 09:12:23;;;;;;;34.05;24.02;;;15.20;99.90;;;;;;4973607;28;20216;-78
2021/03/05 09:15:01;;;;;;;44.85;26.05;;;14.80;99.90;;;;;;4973784;28;20276;-80
2021/03/05 09:17:28;;;;;;;37.72;26.80;;;15.30;99.90;;;;;;4973650;28;20591;-79
2021/03/05 09:19:54;;;;;;;37.55;23.83;;;16.10;99.90;;;;;;4974479;28;20213;-79
2021/03/05 09:22:22;;;;;;;46.30;25.50;;;15.90;99.90;;;;;;4973933;28;20210;-80
2021/03/05 09:24:53;;;;;;;37.00;25.33;;;15.30;99.90;;;;;;4972880;28;20316;-79
2021/03/05 09:27:23;;;;;;;42.55;24.20;;;15.30;99.90;;;;;;4973016;28;20693;-80
2021/03/05 09:29:49;;;;;;;40.58;25.45;;;15.40;99.90;;;;;;4971175;28;20214;-79
2021/03/05 09:32:16;;;;;;;36.30;24.02;;;16.00;99.90;;;;;;4972969;28;20205;-79
2021/03/05 09:34:50;;;;;;;31.83;21.73;;;17.70;99.90;;;;;;4973865;28;20213;-80
2021/03/05 09:37:18;;;;;;;33.45;22.67;;;18.40;99.90;;;;;;4973417;28;20228;-78
2021/03/05 09:39:46;;;;;;;37.47;24.10;;;19.80;99.90;;;;;;4974019;28;20213;-79
2021/03/05 09:42:13;;;;;;;35.08;23.55;;;19.70;99.90;;;;;;4972976;28;20823;-79
2021/03/05 09:44:45;;;;;;;36.97;23.80;;;19.20;99.90;;;;;;4971993;28;20233;-79
2021/03/05 09:47:12;;;;;;;35.20;22.88;;;18.40;99.90;;;;;;4970117;28;20201;-79
2021/03/05 09:49:39;;;;;;;34.70;22.52;;;18.40;99.90;;;;;;4972073;28;20205;-79
2021/03/05 09:52:24;;;;;;;33.10;23.52;;;18.60;99.90;;;;;;4972854;28;20272;-78
2021/03/05 09:54:51;;;;;;;37.38;24.13;;;20.30;99.90;;;;;;4963939;28;20217;-79
2021/03/05 09:57:23;;;;;;;31.45;21.80;;;21.60;99.90;;;;;;4970992;28;20729;-78
2021/03/05 09:59:51;;;;;;;34.00;23.50;;;21.50;99.90;;;;;;4970436;28;20241;-79
2021/03/05 10:02:18;;;;;;;35.13;22.35;;;22.10;99.90;;;;;;4969878;28;20217;-79
2021/03/05 10:04:45;;;;;;;32.28;24.67;;;22.30;99.90;;;;;;4969637;28;20233;-82
2021/03/05 10:07:12;;;;;;;32.47;21.50;;;23.20;99.90;;;;;;4968293;28;20210;-77
2021/03/05 10:09:39;;;;;;;29.38;23.48;;;23.30;99.90;;;;;;4972134;28;20981;-77
2021/03/05 10:12:06;;;;;;;32.47;23.42;;;22.40;99.90;;;;;;4971410;28;20202;-77
2021/03/05 10:14:34;;;;;;;29.27;23.10;;;20.30;99.90;;;;;;4971500;28;20216;-77
2021/03/05 10:17:13;;;;;;;32.85;22.05;;;21.00;99.90;;;;;;4972471;28;20213;-78
2021/03/05 10:19:40;;;;;;;31.70;21.80;;;22.10;99.90;;;;;;4968184;28;20201;-77
2021/03/05 10:22:08;;;;;;;36.70;22.20;;;22.60;99.90;;;;;;4972782;28;20209;-78
2021/03/05 10:24:35;;;;;;;36.55;21.85;;;22.20;99.90;;;;;;4972948;28;20225;-79
2021/03/05 10:27:14;;;;;;;28.45;22.20;;;21.80;99.90;;;;;;4966929;28;20209;-80
2021/03/05 10:29:43;;;;;;;34.05;22.45;;;22.20;99.90;;;;;;4971725;28;20249;-79
2021/03/05 10:32:24;;;;;;;32.60;21.60;;;22.00;99.90;;;;;;4970854;28;20206;-83
2021/03/05 10:34:52;;;;;;;32.50;22.30;;;22.60;99.90;;;;;;4971562;28;20205;-82
2021/03/05 10:37:19;;;;;;;30.88;23.33;;;22.80;99.90;;;;;;4968382;28;20221;-76
2021/03/05 10:39:47;;;;;;;34.22;21.25;;;22.20;99.90;;;;;;4969483;28;20205;-76
2021/03/05 10:42:15;;;;;;;33.85;21.90;;;19.70;99.90;;;;;;4971185;28;20625;-77
2021/03/05 10:44:43;;;;;;;35.22;23.90;;;18.20;99.90;;;;;;4971964;28;20233;-79
2021/03/05 10:47:11;;;;;;;37.70;25.67;;;17.10;99.90;;;;;;4969362;28;20210;-80
2021/03/05 10:49:41;;;;;;;41.58;27.23;;;16.60;99.90;;;;;;4965841;28;20224;-80
2021/03/05 10:52:10;;;;;;;42.67;24.73;;;16.80;99.90;;;;;;4970287;28;20253;-77
2021/03/05 10:54:37;;;;;;;39.80;25.55;;;15.90;99.90;;;;;;4966586;28;20216;-80
2021/03/05 10:57:04;;;;;;;35.65;24.85;;;15.70;99.90;;;;;;4970762;28;20212;-76
2021/03/05 10:59:30;;;;;;;40.65;25.10;;;15.50;99.90;;;;;;4970379;28;20221;-77
2021/03/05 11:01:57;;;;;;;35.90;22.30;;;15.50;99.90;;;;;;4972437;28;20209;-78
2021/03/05 11:04:24;;;;;;;32.92;24.48;;;15.50;99.90;;;;;;4972010;28;20228;-77
2021/03/05 11:06:53;;;;;;;31.05;22.92;;;16.00;99.90;;;;;;4971948;28;20597;-79
2021/03/05 11:09:21;;;;;;;33.60;22.15;;;16.40;99.90;;;;;;4971716;28;20236;-76
2021/03/05 11:11:48;;;;;;;38.20;20.50;;;16.70;99.90;;;;;;4970982;28;20597;-76
2021/03/05 11:14:15;;;;;;;35.83;21.15;;;16.40;99.90;;;;;;4970907;28;20206;-80
2021/03/05 11:16:42;;;;;;;36.25;18.55;;;16.20;99.90;;;;;;4968227;28;20206;-80
2021/03/05 11:19:09;;;;;;;31.50;18.38;;;16.30;99.90;;;;;;4969794;28;20213;-79
2021/03/05 11:21:35;;;;;;;27.90;18.30;;;16.60;99.90;;;;;;4970549;28;20248;-77
2021/03/05 11:24:04;;;;;;;34.30;19.83;;;16.60;99.90;;;;;;4964873;28;20229;-80
2021/03/05 11:26:30;;;;;;;36.60;19.20;;;16.50;99.90;;;;;;4969993;28;20214;-79
2021/03/05 11:28:57;;;;;;;31.77;18.30;;;16.70;99.90;;;;;;4971156;28;20212;-77
2021/03/05 11:31:24;;;;;;;26.35;16.08;;;16.30;99.90;;;;;;4970683;28;20252;-77
2021/03/05 11:33:50;;;;;;;35.17;18.42;;;16.00;99.90;;;;;;4970451;28;20758;-76
2021/03/05 11:36:20;;;;;;;27.25;17.40;;;15.70;99.90;;;;;;4965331;28;20514;-80
2021/03/05 11:38:48;;;;;;;30.27;17.20;;;15.90;99.90;;;;;;4968972;28;20716;-78
2021/03/05 11:41:17;;;;;;;29.42;16.73;;;15.80;99.90;;;;;;4971080;28;20213;-77
2021/03/05 11:43:46;;;;;;;28.73;18.20;;;16.00;99.90;;;;;;4970327;28;20288;-80
2021/03/05 11:46:13;;;;;;;27.30;16.33;;;16.30;99.90;;;;;;4971574;28;20594;-80
2021/03/05 11:48:40;;;;;;;33.55;18.70;;;16.40;99.90;;;;;;4961537;28;20205;-80
2021/03/05 11:51:07;;;;;;;27.95;17.00;;;16.20;99.90;;;;;;4969885;28;20213;-83
2021/03/05 11:53:33;;;;;;;28.05;17.23;;;15.70;99.90;;;;;;4970951;28;20209;-79
2021/03/05 11:56:00;;;;;;;30.30;16.88;;;15.90;99.90;;;;;;4970192;28;20212;-79
2021/03/05 11:58:27;;;;;;;28.65;16.85;;;16.20;99.90;;;;;;4971792;28;20612;-80
2021/03/05 12:00:54;;;;;;;27.48;16.67;;;16.70;99.90;;;;;;4967014;28;20669;-79
2021/03/05 12:03:20;;;;;;;39.92;15.95;;;16.60;99.90;;;;;;4970611;28;20263;-79
2021/03/05 12:05:47;;;;;;;33.45;16.10;;;16.80;99.90;;;;;;4971196;28;21099;-80
2021/03/05 12:08:14;;;;;;;28.33;16.83;;;16.50;99.90;;;;;;4961554;28;20210;-78
2021/03/05 12:10:40;;;;;;;25.40;16.05;;;16.20;99.90;;;;;;4972248;28;20257;-78
2021/03/05 12:13:06;;;;;;;28.33;17.10;;;16.60;99.90;;;;;;4974715;28;20205;-83
2021/03/05 12:15:34;;;;;;;27.77;15.00;;;16.50;99.90;;;;;;4975620;28;20213;-78
2021/03/05 12:18:01;;;;;;;23.02;15.32;;;16.60;99.90;;;;;;4971396;28;20212;-78
2021/03/05 12:20:27;;;;;;;28.67;16.98;;;16.30;99.90;;;;;;4974678;28;20229;-77
2021/03/05 12:22:53;;;;;;;26.02;17.42;;;16.30;99.90;;;;;;4969328;28;20213;-77
2021/03/05 12:25:20;;;;;;;20.67;11.90;;;16.70;99.90;;;;;;4973503;28;20237;-78
2021/03/05 12:27:47;;;;;;;27.80;13.98;;;16.50;99.90;;;;;;4974885;28;20748;-76
2021/03/05 12:30:14;;;;;;;28.52;14.77;;;16.70;99.90;;;;;;4973726;28;20217;-88
2021/03/05 12:32:44;;;;;;;20.48;11.30;;;16.40;99.90;;;;;;4975357;28;20209;-84
2021/03/05 12:35:11;;;;;;;23.95;11.15;;;16.30;99.90;;;;;;4974262;28;20224;-78
2021/03/05 12:37:38;;;;;;;28.73;13.20;;;17.00;99.90;;;;;;4973042;28;20217;-76
2021/03/05 12:40:07;;;;;;;20.83;11.63;;;17.20;99.90;;;;;;4974342;28;20205;-76